createdAt,value
2018-09-05T00:01:36.666Z,17.80
2018-09-05T00:04:05.641Z,17.90
2018-09-05T00:06:34.594Z,17.90
2018-09-05T00:09:05.390Z,17.80
2018-09-05T00:11:34.023Z,17.70
2018-09-05T00:14:02.841Z,17.80
2018-09-05T00:16:31.755Z,17.80
2018-09-05T00:19:00.672Z,17.90
2018-09-05T00:21:29.732Z,17.90
2018-09-05T00:23:58.743Z,17.90
2018-09-05T00:26:27.879Z,17.90
2018-09-05T00:28:56.735Z,17.90
2018-09-05T00:31:25.550Z,17.70
2018-09-05T00:33:54.545Z,17.80
2018-09-05T00:36:23.803Z,17.80
2018-09-05T00:38:53.117Z,17.80
2018-09-05T00:41:21.811Z,17.80
2018-09-05T00:43:50.686Z,17.80
2018-09-05T00:46:19.705Z,17.80
2018-09-05T00:48:48.833Z,17.80
2018-09-05T00:51:18.453Z,17.70
2018-09-05T00:53:47.248Z,17.60
2018-09-05T00:56:15.950Z,17.50
2018-09-05T00:58:44.961Z,17.60
2018-09-05T01:01:13.902Z,17.60
2018-09-05T01:03:43.011Z,17.60
2018-09-05T01:06:11.976Z,17.50
2018-09-05T01:08:40.945Z,17.50
2018-09-05T01:11:09.786Z,17.50
2018-09-05T01:13:38.686Z,17.50
2018-09-05T01:16:07.368Z,17.40
2018-09-05T01:18:36.164Z,17.50
2018-09-05T01:21:05.295Z,17.50
2018-09-05T01:23:33.966Z,17.50
2018-09-05T01:26:02.799Z,17.50
2018-09-05T01:28:31.534Z,17.40
2018-09-05T01:31:00.296Z,17.40
2018-09-05T01:33:29.197Z,17.40
2018-09-05T01:36:03.515Z,17.30
2018-09-05T01:38:32.028Z,17.40
2018-09-05T01:41:00.583Z,17.40
2018-09-05T01:43:29.119Z,17.40
2018-09-05T01:45:57.694Z,17.40
2018-09-05T01:48:26.610Z,17.30
2018-09-05T01:50:55.167Z,17.40
2018-09-05T01:53:23.792Z,17.30
2018-09-05T01:55:52.609Z,17.30
2018-09-05T01:58:22.072Z,17.20
2018-09-05T02:00:50.747Z,17.20
2018-09-05T02:03:19.573Z,17.10
2018-09-05T02:05:48.446Z,17.10
2018-09-05T02:08:17.275Z,16.90
2018-09-05T02:10:46.337Z,17.00
2018-09-05T02:13:15.126Z,17.00
2018-09-05T02:15:43.999Z,17.00
2018-09-05T02:18:12.735Z,17.00
2018-09-05T02:20:41.491Z,17.00
2018-09-05T02:23:10.418Z,17.00
2018-09-05T02:25:39.452Z,17.00
2018-09-05T02:28:08.537Z,17.00
2018-09-05T02:30:37.567Z,17.00
2018-09-05T02:33:06.849Z,17.00
2018-09-05T02:35:35.543Z,17.00
2018-09-05T02:38:04.248Z,17.10
2018-09-05T02:40:33.141Z,17.20
2018-09-05T02:43:01.871Z,17.20
2018-09-05T02:45:30.783Z,17.20
2018-09-05T02:47:59.422Z,17.20
2018-09-05T02:50:28.336Z,17.30
2018-09-05T02:52:56.933Z,17.30
2018-09-05T02:55:30.988Z,17.30
2018-09-05T02:57:59.705Z,17.30
2018-09-05T03:00:28.405Z,17.30
2018-09-05T03:02:57.218Z,17.30
2018-09-05T03:05:26.049Z,17.40
2018-09-05T03:07:55.725Z,17.30
2018-09-05T03:10:25.074Z,17.40
2018-09-05T03:12:54.050Z,17.40
2018-09-05T03:15:22.954Z,17.30
2018-09-05T03:17:51.747Z,17.30
2018-09-05T03:20:20.864Z,17.30
2018-09-05T03:22:49.847Z,17.40
2018-09-05T03:25:18.793Z,17.40
2018-09-05T03:27:47.628Z,17.40
2018-09-05T03:30:16.392Z,17.30
2018-09-05T03:32:45.317Z,17.30
2018-09-05T03:35:14.156Z,17.40
2018-09-05T03:37:43.151Z,17.40
2018-09-05T03:40:12.066Z,17.40
2018-09-05T03:42:41.082Z,17.40
2018-09-05T03:45:10.175Z,17.50
2018-09-05T03:47:38.933Z,17.50
2018-09-05T03:50:08.169Z,17.30
2018-09-05T03:52:37.445Z,17.30
2018-09-05T03:55:06.438Z,17.50
2018-09-05T03:57:35.334Z,17.50
2018-09-05T04:00:04.499Z,17.50
2018-09-05T04:02:33.209Z,17.60
2018-09-05T04:05:02.062Z,17.60
2018-09-05T04:07:31.265Z,17.60
2018-09-05T04:10:00.313Z,17.60
2018-09-05T04:12:29.008Z,17.70
2018-09-05T04:14:58.163Z,17.70
2018-09-05T04:17:26.981Z,17.60
2018-09-05T04:19:55.858Z,17.50
2018-09-05T04:22:24.350Z,17.50
2018-09-05T04:24:53.265Z,17.50
2018-09-05T04:27:22.234Z,17.60
2018-09-05T04:29:51.711Z,17.60
2018-09-05T04:32:20.392Z,17.60
2018-09-05T04:34:49.370Z,17.60
2018-09-05T04:37:17.963Z,17.70
2018-09-05T04:39:46.658Z,17.70
2018-09-05T04:42:15.917Z,17.70
2018-09-05T04:44:44.616Z,17.70
2018-09-05T04:47:13.365Z,17.80
2018-09-05T04:49:42.102Z,17.70
2018-09-05T04:52:10.796Z,17.70
2018-09-05T04:54:39.393Z,17.70
2018-09-05T04:57:07.795Z,17.80
2018-09-05T04:59:36.523Z,17.70
2018-09-05T05:02:05.357Z,17.80
2018-09-05T05:04:34.349Z,17.80
2018-09-05T05:07:03.688Z,17.90
2018-09-05T05:09:32.267Z,17.90
2018-09-05T05:12:33.046Z,17.90
2018-09-05T05:15:01.752Z,18.00
2018-09-05T05:17:30.368Z,18.00
2018-09-05T05:19:58.998Z,18.00
2018-09-05T05:22:27.594Z,18.00
2018-09-05T05:24:56.209Z,18.00
2018-09-05T05:27:25.006Z,18.10
2018-09-05T05:29:53.965Z,18.00
2018-09-05T05:32:23.002Z,18.10
2018-09-05T05:34:51.755Z,18.10
2018-09-05T05:37:20.463Z,18.20
2018-09-05T05:39:49.926Z,18.20
2018-09-05T05:42:18.527Z,18.20
2018-09-05T05:44:47.236Z,18.20
2018-09-05T05:47:16.032Z,18.40
2018-09-05T05:49:44.855Z,18.50
2018-09-05T05:52:13.855Z,18.60
2018-09-05T05:54:41.880Z,18.70
2018-09-05T05:57:10.552Z,18.80
2018-09-05T05:59:38.632Z,19.00
2018-09-05T06:02:07.284Z,19.00
2018-09-05T06:04:36.067Z,19.10
2018-09-05T06:07:04.960Z,19.00
2018-09-05T06:09:33.923Z,19.00
2018-09-05T06:12:02.892Z,19.20
2018-09-05T06:14:31.985Z,19.20
2018-09-05T06:17:01.375Z,19.40
2018-09-05T06:19:30.099Z,19.50
2018-09-05T06:21:58.902Z,19.50
2018-09-05T06:24:26.884Z,19.70
2018-09-05T06:26:54.891Z,20.00
2018-09-05T06:29:24.332Z,20.00
2018-09-05T06:31:58.366Z,20.20
2018-09-05T06:34:26.449Z,20.50
2018-09-05T06:36:54.460Z,20.60
2018-09-05T06:39:22.532Z,20.80
2018-09-05T06:41:50.907Z,21.10
2018-09-05T06:44:19.446Z,21.50
2018-09-05T06:46:47.389Z,21.80
2018-09-05T06:49:15.556Z,22.00
2018-09-05T06:51:43.770Z,22.00
2018-09-05T06:54:13.011Z,22.30
2018-09-05T06:56:41.601Z,22.70
2018-09-05T06:59:14.377Z,22.70
2018-09-05T07:01:42.530Z,22.60
2018-09-05T07:04:13.812Z,22.60
2018-09-05T07:06:42.206Z,22.60
2018-09-05T07:09:12.269Z,22.50
2018-09-05T07:11:40.760Z,22.70
2018-09-05T07:14:09.594Z,22.70
2018-09-05T07:16:37.643Z,22.60
2018-09-05T07:19:07.477Z,22.70
2018-09-05T07:21:36.187Z,22.90
2018-09-05T07:24:04.518Z,23.10
2018-09-05T07:26:32.532Z,23.10
2018-09-05T07:29:00.635Z,23.30
2018-09-05T07:31:28.471Z,23.20
2018-09-05T07:33:56.455Z,23.50
2018-09-05T07:36:24.164Z,23.40
2018-09-05T07:38:51.949Z,23.80
2018-09-05T07:41:19.759Z,23.90
2018-09-05T07:43:47.611Z,23.80
2018-09-05T07:46:15.327Z,24.00
2018-09-05T07:48:43.155Z,24.20
2018-09-05T07:51:11.268Z,24.30
2018-09-05T07:53:39.124Z,24.70
2018-09-05T07:56:06.901Z,25.00
2018-09-05T07:58:34.985Z,25.20
2018-09-05T08:01:02.675Z,25.10
2018-09-05T08:03:30.373Z,25.50
2018-09-05T08:05:58.116Z,25.80
2018-09-05T08:08:25.958Z,26.10
2018-09-05T08:10:53.872Z,25.40
2018-09-05T08:13:21.590Z,26.10
2018-09-05T08:15:49.384Z,26.00
2018-09-05T08:18:17.377Z,26.70
2018-09-05T08:20:45.586Z,27.60
2018-09-05T08:23:13.837Z,28.20
2018-09-05T08:25:41.674Z,28.90
2018-09-05T08:28:09.485Z,29.40
2018-09-05T08:30:37.582Z,28.50
2018-09-05T08:33:05.679Z,28.50
2018-09-05T08:35:33.702Z,30.20
2018-09-05T08:38:01.453Z,31.90
2018-09-05T08:40:29.217Z,33.00
2018-09-05T08:42:57.321Z,32.00
2018-09-05T08:45:25.763Z,31.90
2018-09-05T08:47:53.695Z,31.60
2018-09-05T08:50:22.068Z,31.60
2018-09-05T08:52:50.252Z,31.60
2018-09-05T08:55:18.929Z,32.20
2018-09-05T08:57:47.055Z,32.80
2018-09-05T09:00:15.830Z,30.60
2018-09-05T09:02:43.706Z,31.10
2018-09-05T09:05:11.861Z,31.00
2018-09-05T09:07:40.074Z,30.50
2018-09-05T09:10:08.252Z,30.40
2018-09-05T09:12:36.368Z,30.60
2018-09-05T09:15:04.544Z,30.60
2018-09-05T09:17:33.181Z,31.20
2018-09-05T09:20:02.195Z,30.90
2018-09-05T09:22:31.030Z,30.90
2018-09-05T09:24:59.885Z,30.40
2018-09-05T09:27:28.661Z,29.70
2018-09-05T09:29:57.595Z,30.40
2018-09-05T09:32:26.551Z,29.70
2018-09-05T09:34:55.268Z,29.40
2018-09-05T09:37:23.897Z,29.30
2018-09-05T09:39:52.596Z,30.40
2018-09-05T09:42:21.493Z,30.20
2018-09-05T09:44:50.191Z,30.20
2018-09-05T09:47:19.097Z,30.20
2018-09-05T09:49:48.019Z,30.80
2018-09-05T09:52:21.556Z,30.40
2018-09-05T09:54:51.959Z,30.40
2018-09-05T09:57:20.863Z,30.70
2018-09-05T09:59:50.621Z,30.30
2018-09-05T10:02:25.224Z,30.50
2018-09-05T10:06:02.811Z,30.00
2018-09-05T10:08:33.226Z,30.10
2018-09-05T10:11:08.025Z,29.90
2018-09-05T10:13:42.528Z,29.80
2018-09-05T10:16:16.792Z,29.80
2018-09-05T10:18:46.907Z,30.20
2018-09-05T10:21:15.642Z,30.40
2018-09-05T10:23:44.379Z,30.40
2018-09-05T10:26:13.076Z,30.30
2018-09-05T10:28:41.718Z,30.10
2018-09-05T10:31:10.465Z,30.00
2018-09-05T10:33:39.200Z,29.40
2018-09-05T10:36:08.016Z,29.70
2018-09-05T10:38:36.721Z,30.30
2018-09-05T10:41:05.786Z,30.30
2018-09-05T10:50:32.326Z,30.20
2018-09-05T10:53:00.944Z,29.10
2018-09-05T10:55:29.171Z,29.60
2018-09-05T10:57:59.079Z,29.70
2018-09-05T11:00:29.025Z,29.50
2018-09-05T11:02:59.511Z,29.70
2018-09-05T11:05:28.403Z,29.80
2018-09-05T11:07:57.418Z,29.30
2018-09-05T11:10:26.086Z,29.80
2018-09-05T11:12:54.812Z,29.90
2018-09-05T11:15:23.589Z,30.00
2018-09-05T11:17:52.440Z,29.90
2018-09-05T11:20:21.055Z,29.30
2018-09-05T11:22:49.658Z,29.00
2018-09-05T11:25:18.649Z,28.90
2018-09-05T11:27:47.373Z,29.20
2018-09-05T11:30:16.455Z,29.60
2018-09-05T11:32:45.753Z,29.30
2018-09-05T11:35:15.012Z,29.10
2018-09-05T11:37:44.363Z,29.20
2018-09-05T11:40:13.557Z,29.30
2018-09-05T11:42:42.753Z,29.30
2018-09-05T11:45:11.533Z,29.60
2018-09-05T11:47:39.455Z,29.70
2018-09-05T11:50:08.067Z,29.50
2018-09-05T11:52:35.996Z,29.50
2018-09-05T11:55:03.912Z,29.80
2018-09-05T11:57:31.853Z,29.70
2018-09-05T12:00:00.025Z,29.30
2018-09-05T12:02:28.458Z,29.50
2018-09-05T12:04:57.118Z,29.70
2018-09-05T12:07:25.529Z,30.00
2018-09-05T12:09:53.442Z,29.70
2018-09-05T12:12:21.641Z,29.90
2018-09-05T12:14:49.596Z,29.90
2018-09-05T12:17:17.492Z,29.80
2018-09-05T12:19:45.480Z,29.90
2018-09-05T12:22:13.322Z,29.90
2018-09-05T12:24:41.378Z,29.60
2018-09-05T12:27:09.414Z,29.60
2018-09-05T12:29:37.449Z,29.50
2018-09-05T12:32:05.304Z,29.20
2018-09-05T12:34:33.579Z,29.20
2018-09-05T12:37:01.525Z,29.40
2018-09-05T12:39:36.238Z,29.60
2018-09-05T12:42:11.386Z,29.40
2018-09-05T12:44:40.082Z,29.50
2018-09-05T12:47:09.620Z,30.00
2018-09-05T12:52:27.308Z,29.40
2018-09-05T12:54:56.020Z,29.40
2018-09-05T12:57:35.944Z,29.40
2018-09-05T13:00:22.771Z,29.00
2018-09-05T13:03:07.299Z,29.20
2018-09-05T13:07:18.743Z,29.00
2018-09-05T13:12:33.774Z,29.40
2018-09-05T13:15:08.409Z,29.00
2018-09-05T13:17:51.855Z,28.60
2018-09-05T13:20:19.798Z,28.60
2018-09-05T13:22:48.068Z,28.70
2018-09-05T13:25:17.588Z,28.70
2018-09-05T13:27:45.827Z,28.80
2018-09-05T13:30:13.819Z,28.50
2018-09-05T13:32:41.855Z,28.50
2018-09-05T13:35:10.427Z,28.40
2018-09-05T13:37:38.498Z,28.30
2018-09-05T13:40:06.583Z,28.50
2018-09-05T13:42:34.678Z,28.60
2018-09-05T13:45:02.986Z,28.80
2018-09-05T13:47:31.008Z,28.80
2018-09-05T13:49:59.254Z,28.50
2018-09-05T13:52:32.103Z,28.60
2018-09-05T13:55:00.274Z,28.50
2018-09-05T13:57:31.644Z,28.50
2018-09-05T14:00:06.465Z,28.60
2018-09-05T14:02:34.320Z,28.60
2018-09-05T14:05:04.481Z,28.40
2018-09-05T14:21:11.072Z,28.50
2018-09-05T14:23:40.363Z,28.30
2018-09-05T14:31:04.511Z,28.60
2018-09-05T14:33:32.756Z,28.60
2018-09-05T14:36:06.720Z,28.60
2018-09-05T14:38:34.777Z,28.60
2018-09-05T14:41:03.055Z,28.50
2018-09-05T14:43:31.248Z,28.80
2018-09-05T14:45:59.546Z,29.10
2018-09-05T14:48:27.798Z,29.20
2018-09-05T14:50:56.217Z,29.40
2018-09-05T14:53:24.049Z,29.50
2018-09-05T14:55:52.025Z,29.40
2018-09-05T14:58:20.064Z,29.40
2018-09-05T15:00:48.592Z,29.60
2018-09-05T15:03:18.212Z,29.40
2018-09-05T15:05:46.806Z,29.10
2018-09-05T15:08:17.124Z,28.80
2018-09-05T15:10:51.988Z,29.00
2018-09-05T15:16:00.036Z,29.10
2018-09-05T15:18:29.857Z,28.90
2018-09-05T15:20:58.561Z,28.80
2018-09-05T15:23:28.070Z,28.80
2018-09-05T15:29:19.346Z,29.00
2018-09-05T15:31:51.211Z,28.80
2018-09-05T15:34:20.215Z,28.80
2018-09-05T15:39:36.766Z,28.50
2018-09-05T15:42:06.485Z,28.50
2018-09-05T15:44:34.979Z,28.30
2018-09-05T15:47:04.234Z,28.10
2018-09-05T15:49:35.965Z,28.00
2018-09-05T15:52:07.219Z,27.80
2018-09-05T15:54:37.855Z,27.70
2018-09-05T15:57:06.667Z,27.60
2018-09-05T15:59:38.100Z,27.60
2018-09-05T16:02:09.824Z,27.50
2018-09-05T16:04:38.722Z,27.60
2018-09-05T16:07:08.657Z,27.70
2018-09-05T16:09:39.290Z,27.80
2018-09-05T16:12:07.431Z,27.70
2018-09-05T16:14:36.980Z,27.50
2018-09-05T16:17:04.917Z,27.50
2018-09-05T16:19:34.235Z,27.60
2018-09-05T16:22:29.627Z,27.70
2018-09-05T16:25:05.776Z,27.70
2018-09-05T16:27:34.475Z,27.60
2018-09-05T16:30:02.867Z,27.40
2018-09-05T16:32:31.052Z,27.50
2018-09-05T16:35:00.269Z,27.50
2018-09-05T16:37:30.243Z,27.50
2018-09-05T16:40:05.136Z,27.50
2018-09-05T16:42:34.244Z,27.70
2018-09-05T16:45:02.635Z,27.60
2018-09-05T16:47:31.854Z,27.60
2018-09-05T16:50:03.720Z,27.50
2018-09-05T16:52:32.695Z,27.40
2018-09-05T16:55:01.428Z,27.30
2018-09-05T16:57:31.619Z,27.20
2018-09-05T17:02:38.583Z,27.00
2018-09-05T17:05:07.072Z,26.90
2018-09-05T17:07:40.688Z,26.80
2018-09-05T17:10:10.929Z,26.80
2018-09-05T17:18:26.689Z,26.60
2018-09-05T17:21:02.046Z,26.60
2018-09-05T17:23:31.974Z,26.50
2018-09-05T17:38:27.211Z,26.40
2018-09-05T17:40:56.861Z,26.00
2018-09-05T17:43:32.550Z,25.90
2018-09-05T17:49:28.907Z,25.70
2018-09-05T17:52:06.315Z,25.60
2018-09-05T17:54:37.818Z,25.50
2018-09-05T17:57:07.295Z,25.40
2018-09-05T17:59:37.285Z,25.30
2018-09-05T18:02:08.789Z,25.20
2018-09-05T18:04:46.498Z,25.10
2018-09-05T18:07:18.963Z,25.00
2018-09-05T18:10:11.650Z,24.90
2018-09-05T18:12:47.558Z,24.80
2018-09-05T18:15:43.971Z,24.70
2018-09-05T18:18:21.066Z,24.60
2018-09-05T18:21:02.466Z,24.40
2018-09-05T18:26:39.390Z,24.10
2018-09-05T18:29:08.101Z,24.00
2018-09-05T18:31:36.776Z,23.90
2018-09-05T18:34:05.546Z,23.80
2018-09-05T18:36:34.267Z,23.80
2018-09-05T18:39:03.095Z,23.70
2018-09-05T18:41:30.945Z,23.60
2018-09-05T18:43:58.934Z,23.50
2018-09-05T18:46:26.950Z,23.40
2018-09-05T18:48:54.917Z,23.20
2018-09-05T18:51:22.762Z,23.10
2018-09-05T18:53:50.616Z,23.00
2018-09-05T18:56:18.512Z,22.90
2018-09-05T18:58:46.387Z,22.90
2018-09-05T19:01:14.263Z,22.80
2018-09-05T19:03:42.140Z,22.70
2018-09-05T19:06:09.998Z,22.70
2018-09-05T19:08:37.902Z,22.60
2018-09-05T19:11:05.725Z,22.60
2018-09-05T19:13:33.542Z,22.50
2018-09-05T19:16:01.457Z,22.50
2018-09-05T19:18:31.098Z,22.40
2018-09-05T19:20:58.967Z,22.40
2018-09-05T19:23:26.823Z,22.30
2018-09-05T19:25:54.666Z,22.30
2018-09-05T19:28:22.595Z,22.30
2018-09-05T19:30:50.470Z,22.30
2018-09-05T19:33:18.306Z,22.30
2018-09-05T19:35:46.122Z,22.30
2018-09-05T19:38:14.017Z,22.40
2018-09-05T19:40:41.875Z,22.40
2018-09-05T19:43:09.728Z,22.40
2018-09-05T19:45:37.565Z,22.40
2018-09-05T19:48:05.419Z,22.40
2018-09-05T19:50:39.836Z,22.40
2018-09-05T19:53:07.650Z,22.30
2018-09-05T19:55:35.469Z,22.40
2018-09-05T19:58:03.332Z,22.40
2018-09-05T20:00:31.137Z,22.40
2018-09-05T20:02:59.894Z,22.30
2018-09-05T20:05:27.769Z,22.30
2018-09-05T20:07:55.644Z,22.30
2018-09-05T20:10:24.279Z,22.30
2018-09-05T20:12:52.097Z,22.20
2018-09-05T20:15:19.974Z,22.30
2018-09-05T20:17:47.887Z,22.20
2018-09-05T20:20:15.822Z,22.20
2018-09-05T20:22:43.718Z,22.20
2018-09-05T20:25:11.575Z,22.20
2018-09-05T20:27:39.390Z,22.20
2018-09-05T20:30:07.304Z,22.10
2018-09-05T20:32:35.162Z,22.10
2018-09-05T20:35:03.037Z,22.00
2018-09-05T20:37:30.873Z,22.00
2018-09-05T20:39:58.649Z,22.00
2018-09-05T20:42:26.424Z,22.00
2018-09-05T20:44:54.274Z,22.00
2018-09-05T20:47:22.138Z,21.90
2018-09-05T20:49:50.010Z,21.90
2018-09-05T20:52:17.934Z,21.80
2018-09-05T20:54:45.722Z,21.90
2018-09-05T20:57:13.710Z,21.90
2018-09-05T20:59:41.453Z,21.90
2018-09-05T21:02:09.388Z,21.90
2018-09-05T21:04:37.304Z,21.90
2018-09-05T21:07:05.220Z,21.80
2018-09-05T21:09:33.076Z,21.70
2018-09-05T21:12:01.031Z,21.70
2018-09-05T21:14:28.886Z,21.70
2018-09-05T21:16:56.762Z,21.70
2018-09-05T21:19:24.538Z,21.60
2018-09-05T21:21:52.414Z,21.60
2018-09-05T21:24:20.311Z,21.70
2018-09-05T21:26:48.304Z,21.70
2018-09-05T21:29:16.261Z,21.70
2018-09-05T21:31:44.115Z,21.70
2018-09-05T21:34:11.968Z,21.70
2018-09-05T21:36:39.827Z,21.70
2018-09-05T21:39:08.631Z,21.60
2018-09-05T21:41:36.403Z,21.60
2018-09-05T21:44:04.346Z,21.60
2018-09-05T21:46:32.569Z,21.50
2018-09-05T21:49:00.384Z,21.50
2018-09-05T21:51:28.520Z,21.50
2018-09-05T21:53:56.336Z,21.50
2018-09-05T21:56:24.171Z,21.50
2018-09-05T21:58:52.067Z,21.50
2018-09-05T22:01:20.303Z,21.50
2018-09-05T22:03:49.799Z,21.50
2018-09-05T22:06:17.634Z,21.50
2018-09-05T22:08:45.489Z,21.50
2018-09-05T22:11:18.726Z,21.50
2018-09-05T22:13:47.015Z,21.30
2018-09-05T22:16:14.840Z,21.30
2018-09-05T22:18:42.712Z,21.20
2018-09-05T22:21:10.549Z,21.20
2018-09-05T22:23:38.344Z,21.20
2018-09-05T22:26:06.220Z,21.10
2018-09-05T22:28:34.095Z,21.10
2018-09-05T22:31:01.973Z,21.20
2018-09-05T22:33:29.906Z,21.10
2018-09-05T22:35:57.767Z,21.00
2018-09-05T22:38:25.617Z,21.00
2018-09-05T22:40:54.832Z,20.90
2018-09-05T22:43:28.127Z,20.80
2018-09-05T22:46:01.723Z,20.70
2018-09-05T22:48:37.058Z,20.70
2018-09-05T22:51:16.014Z,20.70
2018-09-05T22:54:09.589Z,20.60
2018-09-05T22:58:59.069Z,20.60
2018-09-05T23:01:36.834Z,20.60
2018-09-05T23:04:09.705Z,20.60
2018-09-05T23:06:49.545Z,20.40
2018-09-05T23:09:21.224Z,20.30
2018-09-05T23:11:56.017Z,20.20
2018-09-05T23:14:28.848Z,20.20
2018-09-05T23:19:08.047Z,20.00
2018-09-05T23:21:35.187Z,20.00
2018-09-05T23:24:04.574Z,19.90
2018-09-05T23:26:32.473Z,19.90
2018-09-05T23:28:59.639Z,19.80
2018-09-05T23:31:27.120Z,19.80
2018-09-05T23:33:54.675Z,19.70
2018-09-05T23:36:22.319Z,19.70
2018-09-05T23:38:50.386Z,19.60
2018-09-05T23:41:18.344Z,19.40
2018-09-05T23:43:46.158Z,19.30
2018-09-05T23:46:13.533Z,19.30
2018-09-05T23:48:40.795Z,19.30
2018-09-05T23:51:09.334Z,19.20
2018-09-05T23:53:36.701Z,19.10
2018-09-05T23:56:04.335Z,19.10
2018-09-05T23:58:31.493Z,19.10
